sensor_id;sensor_type;location;lat;lon;timestamp;pressure;altitude;pressure_sealevel;temperature;humidity
65534;BME280;53640;55.838;37.184;2023-07-20T00:01:27;97803.63;;;11.38;64.91
65534;BME280;53640;55.838;37.184;2023-07-20T00:03:53;97792.50;;;11.34;64.69
65534;BME280;53640;55.838;37.184;2023-07-20T00:06:24;97824.28;;;11.44;65.22
65534;BME280;53640;55.838;37.184;2023-07-20T00:08:55;97816.66;;;11.41;65.32
65534;BME280;53640;55.838;37.184;2023-07-20T00:11:26;97785.66;;;11.21;65.05
65534;BME280;53640;55.838;37.184;2023-07-20T00:13:53;97810.38;;;11.35;65.21
65534;BME280;53640;55.838;37.184;2023-07-20T00:16:20;97821.50;;;11.39;65.20
65534;BME280;53640;55.838;37.184;2023-07-20T00:18:46;97801.66;;;11.28;65.10
65534;BME280;53640;55.838;37.184;2023-07-20T00:21:13;97781.56;;;11.19;64.95
65534;BME280;53640;55.838;37.184;2023-07-20T00:23:39;97823.91;;;11.30;65.31
65534;BME280;53640;55.838;37.184;2023-07-20T00:26:05;97825.81;;;11.35;65.55
65534;BME280;53640;55.838;37.184;2023-07-20T00:28:32;97833.94;;;11.30;65.32
65534;BME280;53640;55.838;37.184;2023-07-20T00:30:59;97808.06;;;11.12;65.79
65534;BME280;53640;55.838;37.184;2023-07-20T00:33:27;97802.06;;;11.10;65.64
65534;BME280;53640;55.838;37.184;2023-07-20T00:35:54;97823.59;;;11.21;65.31
65534;BME280;53640;55.838;37.184;2023-07-20T00:38:20;97819.50;;;11.19;65.47
65534;BME280;53640;55.838;37.184;2023-07-20T00:40:48;97770.00;;;10.91;65.42
65534;BME280;53640;55.838;37.184;2023-07-20T00:43:18;97825.69;;;11.14;65.42
65534;BME280;53640;55.838;37.184;2023-07-20T00:45:46;97827.28;;;11.10;65.78
65534;BME280;53640;55.838;37.184;2023-07-20T00:48:14;97820.50;;;11.08;65.98
65534;BME280;53640;55.838;37.184;2023-07-20T00:50:41;97827.28;;;11.10;65.76
65534;BME280;53640;55.838;37.184;2023-07-20T00:53:09;97855.78;;;11.18;65.90
65534;BME280;53640;55.838;37.184;2023-07-20T00:55:35;97827.28;;;11.10;65.96
65534;BME280;53640;55.838;37.184;2023-07-20T00:58:02;97812.34;;;11.02;66.07
65534;BME280;53640;55.838;37.184;2023-07-20T01:00:29;97845.25;;;11.21;66.00
65534;BME280;53640;55.838;37.184;2023-07-20T01:02:55;97834.88;;;11.13;66.15
65534;BME280;53640;55.838;37.184;2023-07-20T01:05:28;97795.13;;;10.87;65.72
65534;BME280;53640;55.838;37.184;2023-07-20T01:08:03;97840.28;;;11.13;65.94
65534;BME280;53640;55.838;37.184;2023-07-20T01:10:40;97818.56;;;11.03;65.60
65534;BME280;53640;55.838;37.184;2023-07-20T01:13:07;97836.72;;;11.08;65.65
65534;BME280;53640;55.838;37.184;2023-07-20T01:15:38;97820.41;;;10.97;65.50
65534;BME280;53640;55.838;37.184;2023-07-20T01:18:05;97814.97;;;10.97;65.41
65534;BME280;53640;55.838;37.184;2023-07-20T01:20:33;97822.91;;;11.04;66.23
65534;BME280;53640;55.838;37.184;2023-07-20T01:23:34;97847.91;;;11.16;65.95
65534;BME280;53640;55.838;37.184;2023-07-20T01:26:34;97836.47;;;11.09;65.78
65534;BME280;53640;55.838;37.184;2023-07-20T01:29:18;97838.66;;;11.12;66.05
65534;BME280;53640;55.838;37.184;2023-07-20T01:31:52;97840.53;;;11.07;66.25
65534;BME280;53640;55.838;37.184;2023-07-20T01:34:22;97801.38;;;10.87;66.37
65534;BME280;53640;55.838;37.184;2023-07-20T01:36:50;97807.06;;;10.91;66.14
65534;BME280;53640;55.838;37.184;2023-07-20T01:39:19;97825.81;;;10.97;66.50
65534;BME280;53640;55.838;37.184;2023-07-20T01:41:47;97811.38;;;10.87;66.54
65534;BME280;53640;55.838;37.184;2023-07-20T01:44:13;97842.69;;;11.10;66.45
65534;BME280;53640;55.838;37.184;2023-07-20T01:46:40;97843.53;;;11.10;66.47
65534;BME280;53640;55.838;37.184;2023-07-20T01:49:06;97837.00;;;11.06;66.49
65534;BME280;53640;55.838;37.184;2023-07-20T01:51:33;97836.72;;;11.02;66.76
65534;BME280;53640;55.838;37.184;2023-07-20T01:53:59;97832.91;;;11.03;66.47
65534;BME280;53640;55.838;37.184;2023-07-20T01:56:31;97828.53;;;10.97;66.82
65534;BME280;53640;55.838;37.184;2023-07-20T01:58:57;97834.31;;;11.06;66.80
65534;BME280;53640;55.838;37.184;2023-07-20T02:01:24;97846.78;;;11.12;66.78
65534;BME280;53640;55.838;37.184;2023-07-20T02:03:50;97848.72;;;11.17;66.93
65534;BME280;53640;55.838;37.184;2023-07-20T02:06:17;97847.09;;;11.16;67.00
65534;BME280;53640;55.838;37.184;2023-07-20T02:08:43;97822.59;;;11.00;66.87
65534;BME280;53640;55.838;37.184;2023-07-20T02:11:10;97850.91;;;11.20;67.00
65534;BME280;53640;55.838;37.184;2023-07-20T02:13:36;97822.31;;;11.02;66.91
65534;BME280;53640;55.838;37.184;2023-07-20T02:16:03;97820.97;;;10.99;66.52
65534;BME280;53640;55.838;37.184;2023-07-20T02:18:29;97831.06;;;11.09;66.71
65534;BME280;53640;55.838;37.184;2023-07-20T02:20:56;97844.97;;;11.23;66.48
65534;BME280;53640;55.838;37.184;2023-07-20T02:23:22;97817.22;;;11.06;66.99
65534;BME280;53640;55.838;37.184;2023-07-20T02:25:48;97851.78;;;11.25;66.95
65534;BME280;53640;55.838;37.184;2023-07-20T02:28:15;97812.88;;;11.05;66.52
65534;BME280;53640;55.838;37.184;2023-07-20T02:30:41;97818.06;;;11.11;66.52
65534;BME280;53640;55.838;37.184;2023-07-20T02:33:08;97820.50;;;11.08;66.16
65534;BME280;53640;55.838;37.184;2023-07-20T02:35:34;97831.94;;;11.20;66.21
65534;BME280;53640;55.838;37.184;2023-07-20T02:38:01;97840.13;;;11.25;66.32
65534;BME280;53640;55.838;37.184;2023-07-20T02:40:27;97837.13;;;11.21;66.35
65534;BME280;53640;55.838;37.184;2023-07-20T02:42:54;97840.94;;;11.25;66.39
65534;BME280;53640;55.838;37.184;2023-07-20T02:45:20;97857.25;;;11.36;66.42
65534;BME280;53640;55.838;37.184;2023-07-20T02:47:47;97859.19;;;11.40;66.52
65534;BME280;53640;55.838;37.184;2023-07-20T02:50:13;97834.72;;;11.25;66.68
65534;BME280;53640;55.838;37.184;2023-07-20T02:52:40;97829.81;;;11.22;66.34
65534;BME280;53640;55.838;37.184;2023-07-20T02:55:07;97791.19;;;10.99;66.78
65534;BME280;53640;55.838;37.184;2023-07-20T02:57:33;97846.16;;;11.37;66.67
65534;BME280;53640;55.838;37.184;2023-07-20T03:00:02;97861.97;;;11.50;66.27
65534;BME280;53640;55.838;37.184;2023-07-20T03:02:31;97846.25;;;11.47;66.65
65534;BME280;53640;55.838;37.184;2023-07-20T03:04:58;97841.38;;;11.49;66.72
65534;BME280;53640;55.838;37.184;2023-07-20T03:07:27;97862.59;;;11.63;66.71
65534;BME280;53640;55.838;37.184;2023-07-20T03:09:54;97833.25;;;11.55;66.48
65534;BME280;53640;55.838;37.184;2023-07-20T03:12:21;97844.16;;;11.60;66.85
65534;BME280;53640;55.838;37.184;2023-07-20T03:14:48;97868.97;;;11.84;67.09
65534;BME280;53640;55.838;37.184;2023-07-20T03:17:15;97863.25;;;11.80;65.26
65534;BME280;53640;55.838;37.184;2023-07-20T03:19:41;97870.09;;;11.88;66.74
65534;BME280;53640;55.838;37.184;2023-07-20T03:22:09;97864.44;;;11.94;65.68
65534;BME280;53640;55.838;37.184;2023-07-20T03:24:36;97843.50;;;11.85;64.71
65534;BME280;53640;55.838;37.184;2023-07-20T03:27:02;97861.22;;;12.03;64.93
65534;BME280;53640;55.838;37.184;2023-07-20T03:29:30;97877.31;;;12.19;64.36
65534;BME280;53640;55.838;37.184;2023-07-20T03:31:57;97850.13;;;12.14;65.12
65534;BME280;53640;55.838;37.184;2023-07-20T03:34:25;97860.50;;;12.28;65.26
65534;BME280;53640;55.838;37.184;2023-07-20T03:36:52;97868.69;;;12.43;64.29
65534;BME280;53640;55.838;37.184;2023-07-20T03:39:18;97834.19;;;12.28;65.03
65534;BME280;53640;55.838;37.184;2023-07-20T03:41:45;97853.53;;;12.52;64.79
65534;BME280;53640;55.838;37.184;2023-07-20T03:44:12;97881.03;;;12.76;63.89
65534;BME280;53640;55.838;37.184;2023-07-20T03:46:38;97868.53;;;12.75;63.62
65534;BME280;53640;55.838;37.184;2023-07-20T03:49:04;97872.09;;;12.91;64.08
65534;BME280;53640;55.838;37.184;2023-07-20T03:51:32;97878.34;;;12.96;64.00
65534;BME280;53640;55.838;37.184;2023-07-20T03:53:58;97886.50;;;13.07;63.28
65534;BME280;53640;55.838;37.184;2023-07-20T03:56:26;97885.69;;;13.11;62.66
65534;BME280;53640;55.838;37.184;2023-07-20T03:58:52;97865.88;;;13.06;63.19
65534;BME280;53640;55.838;37.184;2023-07-20T04:01:19;97890.59;;;13.30;63.20
65534;BME280;53640;55.838;37.184;2023-07-20T04:03:45;97886.50;;;13.27;62.45
65534;BME280;53640;55.838;37.184;2023-07-20T04:06:12;97872.38;;;13.15;62.17
65534;BME280;53640;55.838;37.184;2023-07-20T04:08:40;97903.91;;;13.41;62.81
65534;BME280;53640;55.838;37.184;2023-07-20T04:11:06;97899.03;;;13.43;62.90
65534;BME280;53640;55.838;37.184;2023-07-20T04:13:32;97896.84;;;13.40;61.80
65534;BME280;53640;55.838;37.184;2023-07-20T04:16:00;97876.22;;;13.24;62.27
65534;BME280;53640;55.838;37.184;2023-07-20T04:18:26;97883.28;;;13.25;60.97
65534;BME280;53640;55.838;37.184;2023-07-20T04:20:53;97875.66;;;13.17;61.41
65534;BME280;53640;55.838;37.184;2023-07-20T04:23:19;97878.09;;;13.18;61.77
65534;BME280;53640;55.838;37.184;2023-07-20T04:25:46;97907.72;;;13.30;61.01
65534;BME280;53640;55.838;37.184;2023-07-20T04:28:13;97886.00;;;13.25;60.86
65534;BME280;53640;55.838;37.184;2023-07-20T04:30:48;97908.81;;;13.34;61.82
65534;BME280;53640;55.838;37.184;2023-07-20T04:33:16;97857.16;;;13.09;62.50
65534;BME280;53640;55.838;37.184;2023-07-20T04:35:51;97911.53;;;13.44;63.25
65534;BME280;53640;55.838;37.184;2023-07-20T04:38:21;97848.50;;;13.07;61.02
65534;BME280;53640;55.838;37.184;2023-07-20T04:40:54;97900.94;;;13.43;61.53
65534;BME280;53640;55.838;37.184;2023-07-20T04:43:21;97906.63;;;13.47;62.25
65534;BME280;53640;55.838;37.184;2023-07-20T04:45:47;97907.19;;;13.43;61.64
65534;BME280;53640;55.838;37.184;2023-07-20T04:48:15;97901.19;;;13.41;61.77
65534;BME280;53640;55.838;37.184;2023-07-20T04:50:49;97904.19;;;13.50;60.79
65534;BME280;53640;55.838;37.184;2023-07-20T04:53:16;97891.16;;;13.37;61.21
65534;BME280;53640;55.838;37.184;2023-07-20T04:55:49;97913.44;;;13.54;61.26
65534;BME280;53640;55.838;37.184;2023-07-20T04:58:21;97908.81;;;13.55;60.18
65534;BME280;53640;55.838;37.184;2023-07-20T05:00:50;97890.31;;;13.47;59.78
65534;BME280;53640;55.838;37.184;2023-07-20T05:03:17;97907.72;;;13.61;60.36
65534;BME280;53640;55.838;37.184;2023-07-20T05:05:46;97920.75;;;13.69;59.73
65534;BME280;53640;55.838;37.184;2023-07-20T05:08:13;97914.78;;;13.72;60.53
65534;BME280;53640;55.838;37.184;2023-07-20T05:10:40;97915.34;;;13.79;61.72
65534;BME280;53640;55.838;37.184;2023-07-20T05:13:07;97910.69;;;13.80;59.53
65534;BME280;53640;55.838;37.184;2023-07-20T05:15:34;97897.13;;;13.75;59.09
65534;BME280;53640;55.838;37.184;2023-07-20T05:18:04;97900.91;;;13.89;60.14
65534;BME280;53640;55.838;37.184;2023-07-20T05:20:31;97880.25;;;13.78;59.22
65534;BME280;53640;55.838;37.184;2023-07-20T05:23:00;97898.47;;;13.92;57.94
65534;BME280;53640;55.838;37.184;2023-07-20T05:25:27;97909.31;;;13.98;58.47
65534;BME280;53640;55.838;37.184;2023-07-20T05:27:53;97908.47;;;14.02;59.26
65534;BME280;53640;55.838;37.184;2023-07-20T05:30:21;97885.38;;;13.95;58.29
65534;BME280;53640;55.838;37.184;2023-07-20T05:32:48;97918.25;;;14.19;58.40
65534;BME280;53640;55.838;37.184;2023-07-20T05:35:18;97844.59;;;13.69;57.46
65534;BME280;53640;55.838;37.184;2023-07-20T05:37:45;97921.72;;;14.29;57.87
65534;BME280;53640;55.838;37.184;2023-07-20T05:40:12;97887.47;;;14.23;58.13
65534;BME280;53640;55.838;37.184;2023-07-20T05:42:39;97913.53;;;14.45;55.09
65534;BME280;53640;55.838;37.184;2023-07-20T05:45:05;97904.25;;;14.46;57.80
65534;BME280;53640;55.838;37.184;2023-07-20T05:47:32;97886.31;;;14.39;56.29
65534;BME280;53640;55.838;37.184;2023-07-20T05:49:58;97896.28;;;14.59;58.26
65534;BME280;53640;55.838;37.184;2023-07-20T05:52:28;97920.47;;;14.76;59.11
65534;BME280;53640;55.838;37.184;2023-07-20T05:54:54;97884.53;;;14.74;58.06
65534;BME280;53640;55.838;37.184;2023-07-20T05:57:21;97836.44;;;14.49;53.16
65534;BME280;53640;55.838;37.184;2023-07-20T05:59:48;97899.69;;;14.91;53.70
65534;BME280;53640;55.838;37.184;2023-07-20T06:02:14;97845.38;;;14.55;52.04
65534;BME280;53640;55.838;37.184;2023-07-20T06:04:41;97891.78;;;14.94;51.78
65534;BME280;53640;55.838;37.184;2023-07-20T06:07:07;97887.13;;;14.95;52.84
65534;BME280;53640;55.838;37.184;2023-07-20T06:09:34;97885.38;;;15.14;50.89
65534;BME280;53640;55.838;37.184;2023-07-20T06:12:00;97898.63;;;15.26;51.46
65534;BME280;53640;55.838;37.184;2023-07-20T06:14:27;97901.78;;;15.43;51.47
65534;BME280;53640;55.838;37.184;2023-07-20T06:16:53;97890.56;;;15.45;51.35
65534;BME280;53640;55.838;37.184;2023-07-20T06:19:20;97914.13;;;15.70;50.69
65534;BME280;53640;55.838;37.184;2023-07-20T06:21:48;97831.84;;;15.23;50.32
65534;BME280;53640;55.838;37.184;2023-07-20T06:24:16;97913.09;;;15.90;51.74
65534;BME280;53640;55.838;37.184;2023-07-20T06:26:43;97876.72;;;15.70;50.03
65534;BME280;53640;55.838;37.184;2023-07-20T06:29:09;97921.66;;;16.07;49.32
65534;BME280;53640;55.838;37.184;2023-07-20T06:31:36;97916.72;;;16.09;46.32
65534;BME280;53640;55.838;37.184;2023-07-20T06:34:03;97862.63;;;15.87;47.58
65534;BME280;53640;55.838;37.184;2023-07-20T06:36:29;97921.16;;;16.29;49.67
65534;BME280;53640;55.838;37.184;2023-07-20T06:38:56;97927.03;;;16.41;50.32
65534;BME280;53640;55.838;37.184;2023-07-20T06:41:22;97905.28;;;16.31;47.59
65534;BME280;53640;55.838;37.184;2023-07-20T06:43:50;97918.53;;;16.43;47.74
65534;BME280;53640;55.838;37.184;2023-07-20T06:46:16;97902.47;;;16.41;49.01
65534;BME280;53640;55.838;37.184;2023-07-20T06:48:43;97905.97;;;16.66;47.31
65534;BME280;53640;55.838;37.184;2023-07-20T06:51:10;97924.97;;;16.76;47.84
65534;BME280;53640;55.838;37.184;2023-07-20T06:53:37;97922.59;;;16.88;49.92
65534;BME280;53640;55.838;37.184;2023-07-20T06:56:03;97934.34;;;16.89;47.16
65534;BME280;53640;55.838;37.184;2023-07-20T06:58:30;97915.16;;;16.94;48.17
65534;BME280;53640;55.838;37.184;2023-07-20T07:00:58;97910.41;;;16.99;46.93
65534;BME280;53640;55.838;37.184;2023-07-20T07:03:25;97909.47;;;17.09;46.03
65534;BME280;53640;55.838;37.184;2023-07-20T07:05:55;97914.28;;;17.17;44.41
65534;BME280;53640;55.838;37.184;2023-07-20T07:08:22;97913.22;;;17.13;45.24
65534;BME280;53640;55.838;37.184;2023-07-20T07:10:49;97900.81;;;17.02;45.68
65534;BME280;53640;55.838;37.184;2023-07-20T07:13:15;97935.59;;;17.20;45.71
65534;BME280;53640;55.838;37.184;2023-07-20T07:15:42;97939.44;;;17.19;46.23
65534;BME280;53640;55.838;37.184;2023-07-20T07:18:08;97931.72;;;17.21;44.84
65534;BME280;53640;55.838;37.184;2023-07-20T07:20:35;97935.03;;;17.37;47.67
65534;BME280;53640;55.838;37.184;2023-07-20T07:23:01;97891.25;;;17.23;46.98
65534;BME280;53640;55.838;37.184;2023-07-20T07:25:27;97905.69;;;17.43;43.94
65534;BME280;53640;55.838;37.184;2023-07-20T07:27:54;97933.72;;;17.67;45.56
65534;BME280;53640;55.838;37.184;2023-07-20T07:30:22;97944.59;;;17.72;44.20
65534;BME280;53640;55.838;37.184;2023-07-20T07:32:48;97920.69;;;17.78;44.36
65534;BME280;53640;55.838;37.184;2023-07-20T07:35:15;97936.88;;;17.93;45.86
65534;BME280;53640;55.838;37.184;2023-07-20T07:37:41;97890.69;;;17.87;46.40
65534;BME280;53640;55.838;37.184;2023-07-20T07:40:08;97934.41;;;18.24;46.23
65534;BME280;53640;55.838;37.184;2023-07-20T07:42:35;97928.28;;;18.27;44.11
65534;BME280;53640;55.838;37.184;2023-07-20T07:45:03;97908.50;;;18.31;44.46
65534;BME280;53640;55.838;37.184;2023-07-20T08:00:31;97886.91;;;19.29;41.49
65534;BME280;53640;55.838;37.184;2023-07-20T08:02:58;97899.75;;;19.56;44.94
65534;BME280;53640;55.838;37.184;2023-07-20T08:05:24;97905.75;;;19.67;42.57
65534;BME280;53640;55.838;37.184;2023-07-20T08:07:52;97928.16;;;19.83;41.21
65534;BME280;53640;55.838;37.184;2023-07-20T08:10:19;97930.59;;;19.84;41.64
65534;BME280;53640;55.838;37.184;2023-07-20T08:12:45;97919.75;;;19.79;39.82
65534;BME280;53640;55.838;37.184;2023-07-20T08:15:12;97908.38;;;19.72;41.59
65534;BME280;53640;55.838;37.184;2023-07-20T08:17:41;97918.00;;;19.61;39.21
65534;BME280;53640;55.838;37.184;2023-07-20T08:20:08;97921.69;;;19.56;41.40
65534;BME280;53640;55.838;37.184;2023-07-20T08:22:38;97940.53;;;19.71;42.06
65534;BME280;53640;55.838;37.184;2023-07-20T08:25:06;97937.28;;;19.69;44.22
65534;BME280;53640;55.838;37.184;2023-07-20T08:27:33;97928.00;;;19.57;36.71
65534;BME280;53640;55.838;37.184;2023-07-20T08:29:59;97948.44;;;19.51;39.74
65534;BME280;53640;55.838;37.184;2023-07-20T08:32:26;97890.94;;;19.09;42.04
65534;BME280;53640;55.838;37.184;2023-07-20T08:34:52;97937.69;;;19.40;44.91
65534;BME280;53640;55.838;37.184;2023-07-20T08:37:18;97962.16;;;19.51;44.63
65534;BME280;53640;55.838;37.184;2023-07-20T08:39:45;97951.19;;;19.51;45.71
65534;BME280;53640;55.838;37.184;2023-07-20T08:42:14;97963.50;;;19.53;42.58
65534;BME280;53640;55.838;37.184;2023-07-20T08:44:41;97944.00;;;19.63;45.06
65534;BME280;53640;55.838;37.184;2023-07-20T08:47:10;97910.34;;;19.49;44.47
65534;BME280;53640;55.838;37.184;2023-07-20T08:49:39;97952.75;;;19.65;40.61
65534;BME280;53640;55.838;37.184;2023-07-20T08:52:06;97946.75;;;19.63;43.55
65534;BME280;53640;55.838;37.184;2023-07-20T08:54:33;97922.16;;;19.36;40.75
65534;BME280;53640;55.838;37.184;2023-07-20T08:57:02;97918.84;;;19.25;43.51
65534;BME280;53640;55.838;37.184;2023-07-20T08:59:29;97963.22;;;19.41;42.40
65534;BME280;53640;55.838;37.184;2023-07-20T09:01:57;97915.69;;;19.18;44.75
65534;BME280;53640;55.838;37.184;2023-07-20T09:04:24;97951.34;;;19.32;44.52
65534;BME280;53640;55.838;37.184;2023-07-20T09:06:51;97928.19;;;19.24;44.60
65534;BME280;53640;55.838;37.184;2023-07-20T09:09:18;97928.94;;;19.16;43.00
65534;BME280;53640;55.838;37.184;2023-07-20T09:11:49;97961.91;;;19.24;41.96
65534;BME280;53640;55.838;37.184;2023-07-20T09:14:15;97924.63;;;19.23;45.29
65534;BME280;53640;55.838;37.184;2023-07-20T09:16:54;97961.38;;;19.36;43.64
65534;BME280;53640;55.838;37.184;2023-07-20T09:19:21;97947.94;;;19.12;43.45
65534;BME280;53640;55.838;37.184;2023-07-20T09:21:49;97979.34;;;19.06;42.34
65534;BME280;53640;55.838;37.184;2023-07-20T09:24:20;97993.16;;;18.87;41.49
65534;BME280;53640;55.838;37.184;2023-07-20T09:26:48;97987.78;;;18.41;43.29
65534;BME280;53640;55.838;37.184;2023-07-20T09:29:19;97974.44;;;18.07;45.73
65534;BME280;53640;55.838;37.184;2023-07-20T09:32:04;97988.34;;;18.10;47.70
65534;BME280;53640;55.838;37.184;2023-07-20T09:34:31;97965.75;;;18.32;48.03
65534;BME280;53640;55.838;37.184;2023-07-20T09:36:59;97963.81;;;18.88;46.92
65534;BME280;53640;55.838;37.184;2023-07-20T09:39:29;97947.91;;;19.26;45.51
65534;BME280;53640;55.838;37.184;2023-07-20T09:42:00;97979.19;;;20.06;42.77
65534;BME280;53640;55.838;37.184;2023-07-20T09:44:28;97978.91;;;20.79;43.06
65534;BME280;53640;55.838;37.184;2023-07-20T09:46:54;97969.13;;;21.21;39.19
65534;BME280;53640;55.838;37.184;2023-07-20T09:49:22;97978.22;;;21.30;39.47
65534;BME280;53640;55.838;37.184;2023-07-20T09:51:48;97972.34;;;21.06;37.48
65534;BME280;53640;55.838;37.184;2023-07-20T09:54:15;97963.44;;;20.91;38.34
65534;BME280;53640;55.838;37.184;2023-07-20T09:56:43;97977.16;;;20.83;39.58
65534;BME280;53640;55.838;37.184;2023-07-20T09:59:10;97946.31;;;20.55;40.03
65534;BME280;53640;55.838;37.184;2023-07-20T10:01:38;97954.31;;;20.42;42.10
65534;BME280;53640;55.838;37.184;2023-07-20T10:04:08;97940.19;;;20.27;45.20
65534;BME280;53640;55.838;37.184;2023-07-20T10:06:39;97983.88;;;20.06;43.98
65534;BME280;53640;55.838;37.184;2023-07-20T10:09:10;97914.28;;;19.20;47.31
65534;BME280;53640;55.838;37.184;2023-07-20T10:11:41;97985.16;;;19.41;50.48
65534;BME280;53640;55.838;37.184;2023-07-20T10:14:13;97979.94;;;19.17;47.40
65534;BME280;53640;55.838;37.184;2023-07-20T10:16:49;97960.03;;;19.11;46.38
65534;BME280;53640;55.838;37.184;2023-07-20T10:19:37;97968.09;;;19.44;47.25
65534;BME280;53640;55.838;37.184;2023-07-20T10:22:15;97961.97;;;19.69;46.89
65534;BME280;53640;55.838;37.184;2023-07-20T10:24:46;97953.66;;;20.06;48.24
65534;BME280;53640;55.838;37.184;2023-07-20T10:27:13;97923.44;;;20.37;48.70
65534;BME280;53640;55.838;37.184;2023-07-20T10:29:41;97938.00;;;20.95;46.96
65534;BME280;53640;55.838;37.184;2023-07-20T10:32:09;97951.66;;;21.43;45.63
65534;BME280;53640;55.838;37.184;2023-07-20T10:34:35;97958.44;;;21.28;44.69
65534;BME280;53640;55.838;37.184;2023-07-20T10:37:02;97952.56;;;20.95;41.91
65534;BME280;53640;55.838;37.184;2023-07-20T10:39:31;97910.50;;;20.37;43.56
65534;BME280;53640;55.838;37.184;2023-07-20T10:44:30;97951.72;;;20.06;46.00
65534;BME280;53640;55.838;37.184;2023-07-20T10:47:08;97901.59;;;19.69;47.86
65534;BME280;53640;55.838;37.184;2023-07-20T10:49:35;97957.78;;;19.94;47.73
65534;BME280;53640;55.838;37.184;2023-07-20T10:52:21;97943.34;;;19.58;47.43
65534;BME280;53640;55.838;37.184;2023-07-20T10:54:48;97970.88;;;19.30;46.94
65534;BME280;53640;55.838;37.184;2023-07-20T10:59:49;97979.66;;;18.91;47.35
65534;BME280;53640;55.838;37.184;2023-07-20T11:02:18;98004.66;;;18.75;49.15
65534;BME280;53640;55.838;37.184;2023-07-20T11:04:46;98008.06;;;18.54;51.28
65534;BME280;53640;55.838;37.184;2023-07-20T11:07:17;97999.72;;;18.31;52.34
65534;BME280;53640;55.838;37.184;2023-07-20T11:09:44;97993.28;;;18.08;53.60
65534;BME280;53640;55.838;37.184;2023-07-20T11:12:15;97995.69;;;17.96;54.60
65534;BME280;53640;55.838;37.184;2023-07-20T11:14:53;97969.31;;;17.67;54.12
65534;BME280;53640;55.838;37.184;2023-07-20T11:17:20;97982.88;;;17.59;55.09
65534;BME280;53640;55.838;37.184;2023-07-20T11:19:49;98003.28;;;17.47;51.47
65534;BME280;53640;55.838;37.184;2023-07-20T11:22:17;97994.00;;;17.05;51.28
65534;BME280;53640;55.838;37.184;2023-07-20T11:24:43;98010.06;;;16.88;50.40
65534;BME280;53640;55.838;37.184;2023-07-20T11:27:10;98008.09;;;16.17;52.97
65534;BME280;53640;55.838;37.184;2023-07-20T11:29:37;98022.09;;;16.10;55.80
65534;BME280;53640;55.838;37.184;2023-07-20T11:32:04;97999.44;;;15.75;55.55
65534;BME280;53640;55.838;37.184;2023-07-20T11:34:31;97989.28;;;15.52;57.83
65534;BME280;53640;55.838;37.184;2023-07-20T11:36:58;97995.53;;;15.52;58.84
65534;BME280;53640;55.838;37.184;2023-07-20T11:39:25;98011.91;;;15.47;57.94
65534;BME280;53640;55.838;37.184;2023-07-20T11:41:53;98013.81;;;15.52;58.96
65534;BME280;53640;55.838;37.184;2023-07-20T11:44:23;98020.38;;;15.51;59.50
65534;BME280;53640;55.838;37.184;2023-07-20T11:47:09;97984.50;;;15.28;60.85
65534;BME280;53640;55.838;37.184;2023-07-20T11:49:43;97975.72;;;15.36;63.76
65534;BME280;53640;55.838;37.184;2023-07-20T11:52:16;97980.22;;;15.56;63.50
65534;BME280;53640;55.838;37.184;2023-07-20T11:54:44;97995.75;;;15.95;67.06
65534;BME280;53640;55.838;37.184;2023-07-20T11:57:18;97979.94;;;16.21;65.59
65534;BME280;53640;55.838;37.184;2023-07-20T11:59:55;97986.19;;;16.51;67.37
65534;BME280;53640;55.838;37.184;2023-07-20T12:02:32;97984.22;;;17.23;70.62
65534;BME280;53640;55.838;37.184;2023-07-20T12:04:58;97993.03;;;17.91;72.09
65534;BME280;53640;55.838;37.184;2023-07-20T12:07:27;97987.75;;;18.13;69.80
65534;BME280;53640;55.838;37.184;2023-07-20T12:10:07;98007.06;;;18.36;64.87
65534;BME280;53640;55.838;37.184;2023-07-20T12:12:37;97987.25;;;18.39;62.17
65534;BME280;53640;55.838;37.184;2023-07-20T12:15:24;98006.53;;;18.34;56.95
65534;BME280;53640;55.838;37.184;2023-07-20T12:17:53;97986.41;;;18.11;59.60
65534;BME280;53640;55.838;37.184;2023-07-20T12:20:37;98007.41;;;18.15;56.48
65534;BME280;53640;55.838;37.184;2023-07-20T12:23:08;97991.25;;;18.00;58.02
65534;BME280;53640;55.838;37.184;2023-07-20T12:28:11;97995.09;;;17.99;56.61
65534;BME280;53640;55.838;37.184;2023-07-20T12:30:38;98013.03;;;18.38;59.62
65534;BME280;53640;55.838;37.184;2023-07-20T12:33:04;98009.34;;;18.89;59.67
65534;BME280;53640;55.838;37.184;2023-07-20T12:35:31;97981.50;;;19.45;61.21
65534;BME280;53640;55.838;37.184;2023-07-20T12:37:58;97998.78;;;20.36;60.59
65534;BME280;53640;55.838;37.184;2023-07-20T12:40:25;97992.47;;;21.41;65.84
65534;BME280;53640;55.838;37.184;2023-07-20T12:42:52;97983.34;;;22.19;61.38
65534;BME280;53640;55.838;37.184;2023-07-20T12:45:18;97966.97;;;22.69;56.25
65534;BME280;53640;55.838;37.184;2023-07-20T12:47:45;97987.97;;;23.42;54.81
65534;BME280;53640;55.838;37.184;2023-07-20T12:50:11;97988.13;;;23.66;55.85
65534;BME280;53640;55.838;37.184;2023-07-20T12:52:39;97994.84;;;23.56;50.53
65534;BME280;53640;55.838;37.184;2023-07-20T12:55:07;97986.16;;;23.46;41.11
65534;BME280;53640;55.838;37.184;2023-07-20T12:57:35;97990.72;;;23.84;44.89
65534;BME280;53640;55.838;37.184;2023-07-20T13:00:03;97954.50;;;23.97;49.17
65534;BME280;53640;55.838;37.184;2023-07-20T13:02:33;97956.31;;;23.93;39.49
65534;BME280;53640;55.838;37.184;2023-07-20T13:05:00;97980.28;;;23.89;38.96
65534;BME280;53640;55.838;37.184;2023-07-20T13:07:31;97951.13;;;23.38;41.60
65534;BME280;53640;55.838;37.184;2023-07-20T13:10:00;97965.41;;;22.89;39.02
65534;BME280;53640;55.838;37.184;2023-07-20T13:12:32;97970.63;;;22.44;38.49
65534;BME280;53640;55.838;37.184;2023-07-20T13:15:00;97974.81;;;21.94;40.95
65534;BME280;53640;55.838;37.184;2023-07-20T13:17:30;97967.53;;;21.55;41.23